sensor_id;sensor_type;location;lat;lon;timestamp;temperature;humidity
66119;DHT22;52912;48.564;9.302;2023-06-26T00:01:52;21.77;61.32
66119;DHT22;52912;48.564;9.302;2023-06-26T00:04:18;21.69;60.56
66119;DHT22;52912;48.564;9.302;2023-06-26T00:06:43;21.61;62.76
66119;DHT22;52912;48.564;9.302;2023-06-26T00:09:08;21.46;63.60
66119;DHT22;52912;48.564;9.302;2023-06-26T00:11:34;21.44;63.53
66119;DHT22;52912;48.564;9.302;2023-06-26T00:14:00;21.44;63.87
66119;DHT22;52912;48.564;9.302;2023-06-26T00:16:27;21.39;63.46
66119;DHT22;52912;48.564;9.302;2023-06-26T00:18:52;21.33;63.24
66119;DHT22;52912;48.564;9.302;2023-06-26T00:21:18;21.36;63.31
66119;DHT22;52912;48.564;9.302;2023-06-26T00:23:43;21.37;63.23
66119;DHT22;52912;48.564;9.302;2023-06-26T00:26:08;21.27;64.22
66119;DHT22;52912;48.564;9.302;2023-06-26T00:28:34;21.12;63.61
66119;DHT22;52912;48.564;9.302;2023-06-26T00:30:59;21.16;63.84
66119;DHT22;52912;48.564;9.302;2023-06-26T00:33:26;21.12;64.51
66119;DHT22;52912;48.564;9.302;2023-06-26T00:35:52;20.87;64.66
66119;DHT22;52912;48.564;9.302;2023-06-26T00:38:17;20.92;66.40
66119;DHT22;52912;48.564;9.302;2023-06-26T00:40:43;20.74;68.10
66119;DHT22;52912;48.564;9.302;2023-06-26T00:43:08;20.17;70.12
66119;DHT22;52912;48.564;9.302;2023-06-26T00:45:33;20.04;71.02
66119;DHT22;52912;48.564;9.302;2023-06-26T00:47:59;20.10;70.75
66119;DHT22;52912;48.564;9.302;2023-06-26T00:50:26;20.09;71.08
66119;DHT22;52912;48.564;9.302;2023-06-26T00:52:52;20.00;71.29
66119;DHT22;52912;48.564;9.302;2023-06-26T00:55:17;19.88;71.52
66119;DHT22;52912;48.564;9.302;2023-06-26T00:57:43;19.63;72.03
66119;DHT22;52912;48.564;9.302;2023-06-26T01:00:09;19.68;72.14
66119;DHT22;52912;48.564;9.302;2023-06-26T01:02:34;19.49;72.52
66119;DHT22;52912;48.564;9.302;2023-06-26T01:05:01;19.51;72.55
66119;DHT22;52912;48.564;9.302;2023-06-26T01:07:28;19.58;72.44
66119;DHT22;52912;48.564;9.302;2023-06-26T01:09:53;19.55;72.62
66119;DHT22;52912;48.564;9.302;2023-06-26T01:12:19;19.49;72.91
66119;DHT22;52912;48.564;9.302;2023-06-26T01:14:44;19.33;73.33
66119;DHT22;52912;48.564;9.302;2023-06-26T01:17:10;19.31;73.44
66119;DHT22;52912;48.564;9.302;2023-06-26T01:19:36;19.31;73.28
66119;DHT22;52912;48.564;9.302;2023-06-26T01:22:10;19.15;73.33
66119;DHT22;52912;48.564;9.302;2023-06-26T01:24:47;19.34;73.39
66119;DHT22;52912;48.564;9.302;2023-06-26T01:27:21;19.33;72.98
66119;DHT22;52912;48.564;9.302;2023-06-26T01:29:49;19.12;73.45
66119;DHT22;52912;48.564;9.302;2023-06-26T01:32:15;19.18;73.64
66119;DHT22;52912;48.564;9.302;2023-06-26T01:34:41;19.13;74.22
66119;DHT22;52912;48.564;9.302;2023-06-26T01:37:07;19.10;73.81
66119;DHT22;52912;48.564;9.302;2023-06-26T01:39:32;18.94;74.16
66119;DHT22;52912;48.564;9.302;2023-06-26T01:41:58;18.94;74.28
66119;DHT22;52912;48.564;9.302;2023-06-26T01:44:28;18.92;73.97
66119;DHT22;52912;48.564;9.302;2023-06-26T01:47:00;18.88;74.32
66119;DHT22;52912;48.564;9.302;2023-06-26T01:49:43;18.91;73.86
66119;DHT22;52912;48.564;9.302;2023-06-26T01:52:16;18.92;73.60
66119;DHT22;52912;48.564;9.302;2023-06-26T01:54:50;18.94;73.57
66119;DHT22;52912;48.564;9.302;2023-06-26T01:57:17;18.92;73.90
66119;DHT22;52912;48.564;9.302;2023-06-26T01:59:45;18.89;73.81
66119;DHT22;52912;48.564;9.302;2023-06-26T02:02:11;18.79;73.91
66119;DHT22;52912;48.564;9.302;2023-06-26T02:04:37;18.76;74.04
66119;DHT22;52912;48.564;9.302;2023-06-26T02:07:02;18.74;73.83
66119;DHT22;52912;48.564;9.302;2023-06-26T02:09:28;18.84;73.80
66119;DHT22;52912;48.564;9.302;2023-06-26T02:11:53;18.65;74.27
66119;DHT22;52912;48.564;9.302;2023-06-26T02:14:19;18.69;73.98
66119;DHT22;52912;48.564;9.302;2023-06-26T02:16:45;18.60;74.14
66119;DHT22;52912;48.564;9.302;2023-06-26T02:19:11;18.71;73.82
66119;DHT22;52912;48.564;9.302;2023-06-26T02:21:36;18.72;73.60
66119;DHT22;52912;48.564;9.302;2023-06-26T02:24:02;18.69;73.86
66119;DHT22;52912;48.564;9.302;2023-06-26T02:26:27;18.65;74.61
66119;DHT22;52912;48.564;9.302;2023-06-26T02:28:53;18.46;75.11
66119;DHT22;52912;48.564;9.302;2023-06-26T02:31:18;18.56;74.22
66119;DHT22;52912;48.564;9.302;2023-06-26T02:33:45;18.54;73.93
66119;DHT22;52912;48.564;9.302;2023-06-26T02:36:11;18.54;73.97
66119;DHT22;52912;48.564;9.302;2023-06-26T02:38:36;18.47;74.49
66119;DHT22;52912;48.564;9.302;2023-06-26T02:41:01;18.51;74.08
66119;DHT22;52912;48.564;9.302;2023-06-26T02:43:27;18.36;74.06
66119;DHT22;52912;48.564;9.302;2023-06-26T02:45:52;18.36;74.54
66119;DHT22;52912;48.564;9.302;2023-06-26T02:48:18;18.33;75.18
66119;DHT22;52912;48.564;9.302;2023-06-26T02:50:45;18.20;74.48
66119;DHT22;52912;48.564;9.302;2023-06-26T02:53:10;18.23;74.33
66119;DHT22;52912;48.564;9.302;2023-06-26T02:55:35;18.30;74.16
66119;DHT22;52912;48.564;9.302;2023-06-26T02:58:01;18.29;74.41
66119;DHT22;52912;48.564;9.302;2023-06-26T03:00:26;18.30;74.44
66119;DHT22;52912;48.564;9.302;2023-06-26T03:02:52;18.40;73.67
66119;DHT22;52912;48.564;9.302;2023-06-26T03:05:17;18.39;73.26
66119;DHT22;52912;48.564;9.302;2023-06-26T03:07:44;18.36;73.43
66119;DHT22;52912;48.564;9.302;2023-06-26T03:10:10;18.50;73.23
66119;DHT22;52912;48.564;9.302;2023-06-26T03:12:35;18.51;73.48
66119;DHT22;52912;48.564;9.302;2023-06-26T03:15:00;18.43;73.89
66119;DHT22;52912;48.564;9.302;2023-06-26T03:17:26;18.37;73.98
66119;DHT22;52912;48.564;9.302;2023-06-26T03:19:51;18.51;73.62
66119;DHT22;52912;48.564;9.302;2023-06-26T03:22:17;18.53;73.66
66119;DHT22;52912;48.564;9.302;2023-06-26T03:24:45;18.46;73.88
66119;DHT22;52912;48.564;9.302;2023-06-26T03:27:10;18.36;74.27
66119;DHT22;52912;48.564;9.302;2023-06-26T03:29:36;18.30;74.59
66119;DHT22;52912;48.564;9.302;2023-06-26T03:32:01;18.30;74.79
66119;DHT22;52912;48.564;9.302;2023-06-26T03:34:26;18.28;74.86
66119;DHT22;52912;48.564;9.302;2023-06-26T03:36:52;18.22;75.12
66119;DHT22;52912;48.564;9.302;2023-06-26T03:39:17;18.28;74.99
66119;DHT22;52912;48.564;9.302;2023-06-26T03:41:44;18.17;75.37
66119;DHT22;52912;48.564;9.302;2023-06-26T03:44:10;18.14;75.45
66119;DHT22;52912;48.564;9.302;2023-06-26T03:46:35;18.19;75.22
66119;DHT22;52912;48.564;9.302;2023-06-26T03:49:00;18.25;74.89
66119;DHT22;52912;48.564;9.302;2023-06-26T03:51:26;18.17;75.19
66119;DHT22;52912;48.564;9.302;2023-06-26T03:53:51;18.25;75.04
66119;DHT22;52912;48.564;9.302;2023-06-26T03:56:17;18.23;75.13
66119;DHT22;52912;48.564;9.302;2023-06-26T03:58:44;18.20;75.05
66119;DHT22;52912;48.564;9.302;2023-06-26T04:01:09;18.10;75.21
66119;DHT22;52912;48.564;9.302;2023-06-26T04:03:34;18.17;74.83
66119;DHT22;52912;48.564;9.302;2023-06-26T04:06:00;18.20;74.68
66119;DHT22;52912;48.564;9.302;2023-06-26T04:08:25;18.33;74.31
66119;DHT22;52912;48.564;9.302;2023-06-26T04:10:51;18.41;74.13
66119;DHT22;52912;48.564;9.302;2023-06-26T04:13:16;18.48;73.81
66119;DHT22;52912;48.564;9.302;2023-06-26T04:15:43;18.54;73.62
66119;DHT22;52912;48.564;9.302;2023-06-26T04:18:08;18.61;73.72
66119;DHT22;52912;48.564;9.302;2023-06-26T04:20:38;18.48;74.21
66119;DHT22;52912;48.564;9.302;2023-06-26T04:23:04;18.56;74.09
66119;DHT22;52912;48.564;9.302;2023-06-26T04:25:30;18.67;74.26
66119;DHT22;52912;48.564;9.302;2023-06-26T04:27:55;18.72;74.30
66119;DHT22;52912;48.564;9.302;2023-06-26T04:30:21;18.51;75.49
66119;DHT22;52912;48.564;9.302;2023-06-26T04:32:47;18.30;78.05
66119;DHT22;52912;48.564;9.302;2023-06-26T04:35:13;18.29;77.68
66119;DHT22;52912;48.564;9.302;2023-06-26T04:37:38;18.28;77.74
66119;DHT22;52912;48.564;9.302;2023-06-26T04:40:05;18.17;77.65
66119;DHT22;52912;48.564;9.302;2023-06-26T04:42:31;18.17;77.95
66119;DHT22;52912;48.564;9.302;2023-06-26T04:44:56;18.22;78.15
66119;DHT22;52912;48.564;9.302;2023-06-26T04:47:21;18.23;78.61
66119;DHT22;52912;48.564;9.302;2023-06-26T04:49:48;18.19;78.36
66119;DHT22;52912;48.564;9.302;2023-06-26T04:52:14;18.41;77.50
66119;DHT22;52912;48.564;9.302;2023-06-26T04:54:39;18.71;76.51
66119;DHT22;52912;48.564;9.302;2023-06-26T04:57:05;18.98;75.02
66119;DHT22;52912;48.564;9.302;2023-06-26T04:59:31;19.16;73.14
66119;DHT22;52912;48.564;9.302;2023-06-26T05:01:56;19.33;72.92
66119;DHT22;52912;48.564;9.302;2023-06-26T05:04:22;19.58;72.63
66119;DHT22;52912;48.564;9.302;2023-06-26T05:06:49;19.70;72.44
66119;DHT22;52912;48.564;9.302;2023-06-26T05:09:14;19.74;72.58
66119;DHT22;52912;48.564;9.302;2023-06-26T05:11:40;19.75;72.33
66119;DHT22;52912;48.564;9.302;2023-06-26T05:14:05;19.61;72.79
66119;DHT22;52912;48.564;9.302;2023-06-26T05:16:31;19.64;72.94
66119;DHT22;52912;48.564;9.302;2023-06-26T05:18:56;19.78;72.76
66119;DHT22;52912;48.564;9.302;2023-06-26T05:21:22;19.96;72.23
66119;DHT22;52912;48.564;9.302;2023-06-26T05:23:49;20.13;71.73
66119;DHT22;52912;48.564;9.302;2023-06-26T05:26:17;20.23;71.44
66119;DHT22;52912;48.564;9.302;2023-06-26T05:28:43;20.37;71.23
66119;DHT22;52912;48.564;9.302;2023-06-26T05:31:09;20.40;70.50
66119;DHT22;52912;48.564;9.302;2023-06-26T05:33:36;20.47;70.27
66119;DHT22;52912;48.564;9.302;2023-06-26T05:36:04;20.57;70.30
66119;DHT22;52912;48.564;9.302;2023-06-26T05:38:30;20.71;70.55
66119;DHT22;52912;48.564;9.302;2023-06-26T05:40:57;20.78;70.49
66119;DHT22;52912;48.564;9.302;2023-06-26T05:43:23;20.91;70.22
66119;DHT22;52912;48.564;9.302;2023-06-26T05:45:49;20.85;70.79
66119;DHT22;52912;48.564;9.302;2023-06-26T05:48:14;20.87;70.87
66119;DHT22;52912;48.564;9.302;2023-06-26T05:50:41;20.99;70.41
66119;DHT22;52912;48.564;9.302;2023-06-26T05:53:07;21.15;70.14
66119;DHT22;52912;48.564;9.302;2023-06-26T05:55:33;21.33;69.64
66119;DHT22;52912;48.564;9.302;2023-06-26T05:58:02;21.41;69.05
66119;DHT22;52912;48.564;9.302;2023-06-26T06:00:28;21.58;69.42
66119;DHT22;52912;48.564;9.302;2023-06-26T06:02:54;21.81;68.87
66119;DHT22;52912;48.564;9.302;2023-06-26T06:05:20;21.89;68.67
66119;DHT22;52912;48.564;9.302;2023-06-26T06:07:45;21.98;68.70
66119;DHT22;52912;48.564;9.302;2023-06-26T06:10:11;22.10;68.40
66119;DHT22;52912;48.564;9.302;2023-06-26T06:12:36;22.32;66.78
66119;DHT22;52912;48.564;9.302;2023-06-26T06:15:03;22.36;66.19
66119;DHT22;52912;48.564;9.302;2023-06-26T06:17:28;22.28;66.67
66119;DHT22;52912;48.564;9.302;2023-06-26T06:19:54;22.41;66.92
66119;DHT22;52912;48.564;9.302;2023-06-26T06:22:19;22.40;66.20
66119;DHT22;52912;48.564;9.302;2023-06-26T06:24:45;22.53;66.53
66119;DHT22;52912;48.564;9.302;2023-06-26T06:27:10;22.68;66.84
66119;DHT22;52912;48.564;9.302;2023-06-26T06:29:36;22.90;65.84
66119;DHT22;52912;48.564;9.302;2023-06-26T06:32:03;22.98;65.58
66119;DHT22;52912;48.564;9.302;2023-06-26T06:34:29;23.05;65.30
66119;DHT22;52912;48.564;9.302;2023-06-26T06:36:54;23.20;65.60
66119;DHT22;52912;48.564;9.302;2023-06-26T06:39:20;23.27;65.23
66119;DHT22;52912;48.564;9.302;2023-06-26T06:41:45;23.42;64.63
66119;DHT22;52912;48.564;9.302;2023-06-26T06:44:11;23.61;64.27
66119;DHT22;52912;48.564;9.302;2023-06-26T06:46:36;23.77;63.57
66119;DHT22;52912;48.564;9.302;2023-06-26T06:49:03;23.82;63.33
66119;DHT22;52912;48.564;9.302;2023-06-26T06:51:28;23.92;63.92
66119;DHT22;52912;48.564;9.302;2023-06-26T06:53:54;24.08;64.08
66119;DHT22;52912;48.564;9.302;2023-06-26T06:56:19;24.06;64.01
66119;DHT22;52912;48.564;9.302;2023-06-26T06:58:45;23.99;64.50
66119;DHT22;52912;48.564;9.302;2023-06-26T07:01:10;24.29;64.79
66119;DHT22;52912;48.564;9.302;2023-06-26T07:03:36;24.47;64.15
66119;DHT22;52912;48.564;9.302;2023-06-26T07:06:03;24.51;63.47
66119;DHT22;52912;48.564;9.302;2023-06-26T07:08:28;24.77;63.28
66119;DHT22;52912;48.564;9.302;2023-06-26T07:10:54;24.98;62.61
66119;DHT22;52912;48.564;9.302;2023-06-26T07:13:19;25.18;61.27
66119;DHT22;52912;48.564;9.302;2023-06-26T07:15:45;25.43;61.32
66119;DHT22;52912;48.564;9.302;2023-06-26T07:18:11;25.64;60.23
66119;DHT22;52912;48.564;9.302;2023-06-26T07:20:36;25.81;60.06
66119;DHT22;52912;48.564;9.302;2023-06-26T07:23:03;25.99;59.67
66119;DHT22;52912;48.564;9.302;2023-06-26T07:25:29;26.16;59.64
66119;DHT22;52912;48.564;9.302;2023-06-26T07:27:54;26.13;60.01
66119;DHT22;52912;48.564;9.302;2023-06-26T07:30:20;26.43;59.82
66119;DHT22;52912;48.564;9.302;2023-06-26T07:32:45;26.53;59.75
66119;DHT22;52912;48.564;9.302;2023-06-26T07:35:11;26.67;59.76
66119;DHT22;52912;48.564;9.302;2023-06-26T07:37:36;26.78;58.88
66119;DHT22;52912;48.564;9.302;2023-06-26T07:40:04;26.95;58.54
66119;DHT22;52912;48.564;9.302;2023-06-26T07:42:30;27.09;57.92
66119;DHT22;52912;48.564;9.302;2023-06-26T07:44:55;27.22;58.62
66119;DHT22;52912;48.564;9.302;2023-06-26T07:47:21;27.43;58.12
66119;DHT22;52912;48.564;9.302;2023-06-26T07:49:46;27.45;57.51
66119;DHT22;52912;48.564;9.302;2023-06-26T07:52:12;27.43;57.83
66119;DHT22;52912;48.564;9.302;2023-06-26T07:54:38;27.87;57.65
66119;DHT22;52912;48.564;9.302;2023-06-26T07:57:05;27.98;56.41
66119;DHT22;52912;48.564;9.302;2023-06-26T07:59:31;28.02;56.70
66119;DHT22;52912;48.564;9.302;2023-06-26T08:01:57;28.29;56.44
66119;DHT22;52912;48.564;9.302;2023-06-26T08:04:25;28.44;55.30
66119;DHT22;52912;48.564;9.302;2023-06-26T08:06:52;28.37;54.87
66119;DHT22;52912;48.564;9.302;2023-06-26T08:09:18;28.47;55.49
66119;DHT22;52912;48.564;9.302;2023-06-26T08:11:44;28.71;55.02
66119;DHT22;52912;48.564;9.302;2023-06-26T08:14:12;28.98;54.39
66119;DHT22;52912;48.564;9.302;2023-06-26T08:16:37;29.18;54.70
66119;DHT22;52912;48.564;9.302;2023-06-26T08:19:03;29.25;53.51
66119;DHT22;52912;48.564;9.302;2023-06-26T08:21:28;29.43;53.85
66119;DHT22;52912;48.564;9.302;2023-06-26T08:23:54;29.29;52.32
66119;DHT22;52912;48.564;9.302;2023-06-26T08:26:20;29.67;52.82
66119;DHT22;52912;48.564;9.302;2023-06-26T08:28:45;29.76;51.92
66119;DHT22;52912;48.564;9.302;2023-06-26T08:31:12;29.73;52.52
66119;DHT22;52912;48.564;9.302;2023-06-26T08:33:38;29.85;52.27
66119;DHT22;52912;48.564;9.302;2023-06-26T08:36:03;29.97;51.78
66119;DHT22;52912;48.564;9.302;2023-06-26T08:38:29;30.22;51.71
66119;DHT22;52912;48.564;9.302;2023-06-26T08:40:54;30.30;51.60
66119;DHT22;52912;48.564;9.302;2023-06-26T08:43:20;30.61;51.92
66119;DHT22;52912;48.564;9.302;2023-06-26T08:45:46;30.60;50.55
66119;DHT22;52912;48.564;9.302;2023-06-26T08:48:13;30.90;50.34
66119;DHT22;52912;48.564;9.302;2023-06-26T08:50:39;30.90;49.28
66119;DHT22;52912;48.564;9.302;2023-06-26T08:53:09;31.08;50.84
66119;DHT22;52912;48.564;9.302;2023-06-26T08:55:41;31.16;50.43
66119;DHT22;52912;48.564;9.302;2023-06-26T08:58:07;31.15;50.13
66119;DHT22;52912;48.564;9.302;2023-06-26T09:00:32;31.14;50.18
66119;DHT22;52912;48.564;9.302;2023-06-26T09:02:59;31.32;49.50
66119;DHT22;52912;48.564;9.302;2023-06-26T09:05:27;31.43;48.51
66119;DHT22;52912;48.564;9.302;2023-06-26T09:07:52;31.56;47.88
66119;DHT22;52912;48.564;9.302;2023-06-26T09:10:18;31.63;48.92
66119;DHT22;52912;48.564;9.302;2023-06-26T09:12:46;32.09;47.68
66119;DHT22;52912;48.564;9.302;2023-06-26T09:15:14;32.25;48.29
66119;DHT22;52912;48.564;9.302;2023-06-26T09:17:39;31.97;47.86
66119;DHT22;52912;48.564;9.302;2023-06-26T09:20:05;31.98;47.66
66119;DHT22;52912;48.564;9.302;2023-06-26T09:22:33;32.28;47.98
66119;DHT22;52912;48.564;9.302;2023-06-26T09:24:58;32.59;47.58
66119;DHT22;52912;48.564;9.302;2023-06-26T09:27:24;32.97;47.18
66119;DHT22;52912;48.564;9.302;2023-06-26T09:29:50;32.76;46.49
66119;DHT22;52912;48.564;9.302;2023-06-26T09:32:16;32.60;46.98
66119;DHT22;52912;48.564;9.302;2023-06-26T09:34:43;32.79;46.17
66119;DHT22;52912;48.564;9.302;2023-06-26T09:37:08;33.03;46.04
66119;DHT22;52912;48.564;9.302;2023-06-26T09:39:37;33.10;45.67
66119;DHT22;52912;48.564;9.302;2023-06-26T09:42:04;33.36;45.67
66119;DHT22;52912;48.564;9.302;2023-06-26T09:44:32;33.18;45.75
66119;DHT22;52912;48.564;9.302;2023-06-26T09:46:58;33.32;45.55
66119;DHT22;52912;48.564;9.302;2023-06-26T09:49:23;33.25;45.19
66119;DHT22;52912;48.564;9.302;2023-06-26T09:51:50;33.70;44.44
66119;DHT22;52912;48.564;9.302;2023-06-26T09:54:17;33.93;44.10
66119;DHT22;52912;48.564;9.302;2023-06-26T09:56:44;34.17;44.56
66119;DHT22;52912;48.564;9.302;2023-06-26T09:59:09;33.73;43.90
66119;DHT22;52912;48.564;9.302;2023-06-26T10:01:41;33.04;45.27
66119;DHT22;52912;48.564;9.302;2023-06-26T10:04:06;32.92;45.30
66119;DHT22;52912;48.564;9.302;2023-06-26T10:06:34;32.97;45.04
66119;DHT22;52912;48.564;9.302;2023-06-26T10:09:01;33.01;44.63
66119;DHT22;52912;48.564;9.302;2023-06-26T10:11:34;32.79;45.35
66119;DHT22;52912;48.564;9.302;2023-06-26T10:14:03;32.02;46.09
66119;DHT22;52912;48.564;9.302;2023-06-26T10:16:31;32.12;46.49
66119;DHT22;52912;48.564;9.302;2023-06-26T10:19:01;32.00;46.26
66119;DHT22;52912;48.564;9.302;2023-06-26T10:21:29;33.35;45.81
66119;DHT22;52912;48.564;9.302;2023-06-26T10:23:56;33.25;44.77
66119;DHT22;52912;48.564;9.302;2023-06-26T10:26:22;33.69;44.56
66119;DHT22;52912;48.564;9.302;2023-06-26T10:28:50;34.11;43.96
66119;DHT22;52912;48.564;9.302;2023-06-26T10:31:19;34.38;43.32
66119;DHT22;52912;48.564;9.302;2023-06-26T10:33:46;34.15;43.63
66119;DHT22;52912;48.564;9.302;2023-06-26T10:36:13;33.22;43.74
66119;DHT22;52912;48.564;9.302;2023-06-26T10:55:47;34.44;42.51
66119;DHT22;52912;48.564;9.302;2023-06-26T10:58:57;34.79;42.93
66119;DHT22;52912;48.564;9.302;2023-06-26T11:01:30;34.72;42.11
66119;DHT22;52912;48.564;9.302;2023-06-26T11:04:10;34.99;40.95
66119;DHT22;52912;48.564;9.302;2023-06-26T11:46:36;35.68;42.81
66119;DHT22;52912;48.564;9.302;2023-06-26T11:49:03;35.06;42.51
66119;DHT22;52912;48.564;9.302;2023-06-26T11:51:29;35.13;43.58
66119;DHT22;52912;48.564;9.302;2023-06-26T11:53:54;35.23;43.42
66119;DHT22;52912;48.564;9.302;2023-06-26T11:56:20;35.85;43.32
66119;DHT22;52912;48.564;9.302;2023-06-26T11:59:00;35.89;43.33
66119;DHT22;52912;48.564;9.302;2023-06-26T12:03:58;35.94;43.03
66119;DHT22;52912;48.564;9.302;2023-06-26T12:06:24;35.51;44.30
66119;DHT22;52912;48.564;9.302;2023-06-26T12:08:50;35.53;43.11
66119;DHT22;52912;48.564;9.302;2023-06-26T12:11:16;35.79;43.58
66119;DHT22;52912;48.564;9.302;2023-06-26T12:13:42;35.79;43.63
66119;DHT22;52912;48.564;9.302;2023-06-26T12:16:08;35.97;42.64
66119;DHT22;52912;48.564;9.302;2023-06-26T12:18:34;36.01;43.41
66119;DHT22;52912;48.564;9.302;2023-06-26T12:21:02;35.97;42.38
66119;DHT22;52912;48.564;9.302;2023-06-26T12:23:32;36.06;43.19
66119;DHT22;52912;48.564;9.302;2023-06-26T12:25:57;35.69;43.51
66119;DHT22;52912;48.564;9.302;2023-06-26T12:28:23;35.49;43.52
66119;DHT22;52912;48.564;9.302;2023-06-26T12:31:13;35.90;42.41
66119;DHT22;52912;48.564;9.302;2023-06-26T12:33:38;36.10;42.55
66119;DHT22;52912;48.564;9.302;2023-06-26T12:36:10;35.55;43.44
66119;DHT22;52912;48.564;9.302;2023-06-26T12:38:36;36.10;42.39
66119;DHT22;52912;48.564;9.302;2023-06-26T12:41:01;36.07;42.15
66119;DHT22;52912;48.564;9.302;2023-06-26T12:43:27;35.56;42.28
66119;DHT22;52912;48.564;9.302;2023-06-26T12:45:54;36.31;42.56
66119;DHT22;52912;48.564;9.302;2023-06-26T12:48:20;36.08;42.40
66119;DHT22;52912;48.564;9.302;2023-06-26T12:50:45;36.14;42.54
66119;DHT22;52912;48.564;9.302;2023-06-26T12:53:12;36.34;42.47
66119;DHT22;52912;48.564;9.302;2023-06-26T12:55:38;36.07;43.46
66119;DHT22;52912;48.564;9.302;2023-06-26T12:58:03;35.53;43.73
66119;DHT22;52912;48.564;9.302;2023-06-26T13:00:29;35.80;43.00
66119;DHT22;52912;48.564;9.302;2023-06-26T13:02:54;35.96;43.65
66119;DHT22;52912;48.564;9.302;2023-06-26T13:05:20;35.15;44.37
66119;DHT22;52912;48.564;9.302;2023-06-26T13:07:45;34.99;44.41
66119;DHT22;52912;48.564;9.302;2023-06-26T13:10:12;35.48;44.68
66119;DHT22;52912;48.564;9.302;2023-06-26T13:12:37;35.61;44.05
66119;DHT22;52912;48.564;9.302;2023-06-26T13:15:03;35.86;43.61
66119;DHT22;52912;48.564;9.302;2023-06-26T13:17:29;35.83;43.14
66119;DHT22;52912;48.564;9.302;2023-06-26T13:19:54;35.42;43.75
66119;DHT22;52912;48.564;9.302;2023-06-26T13:22:20;35.39;43.95
66119;DHT22;52912;48.564;9.302;2023-06-26T13:24:45;35.82;45.10
66119;DHT22;52912;48.564;9.302;2023-06-26T13:27:12;35.56;44.61
66119;DHT22;52912;48.564;9.302;2023-06-26T13:29:38;35.76;44.40
66119;DHT22;52912;48.564;9.302;2023-06-26T13:32:04;36.42;43.41
66119;DHT22;52912;48.564;9.302;2023-06-26T13:34:29;36.30;44.14
66119;DHT22;52912;48.564;9.302;2023-06-26T13:36:55;36.19;44.33
66119;DHT22;52912;48.564;9.302;2023-06-26T13:39:21;36.23;44.35
66119;DHT22;52912;48.564;9.302;2023-06-26T13:41:46;36.25;44.16
66119;DHT22;52912;48.564;9.302;2023-06-26T13:44:13;36.01;44.57
66119;DHT22;52912;48.564;9.302;2023-06-26T13:46:39;36.11;44.94
66119;DHT22;52912;48.564;9.302;2023-06-26T13:49:13;36.01;44.70
66119;DHT22;52912;48.564;9.302;2023-06-26T13:51:39;35.23;45.24
66119;DHT22;52912;48.564;9.302;2023-06-26T13:54:04;35.30;45.48
66119;DHT22;52912;48.564;9.302;2023-06-26T13:56:30;35.38;45.49
66119;DHT22;52912;48.564;9.302;2023-06-26T13:58:55;35.42;45.25
66119;DHT22;52912;48.564;9.302;2023-06-26T14:01:22;35.31;45.44
66119;DHT22;52912;48.564;9.302;2023-06-26T14:03:47;35.06;45.05
66119;DHT22;52912;48.564;9.302;2023-06-26T14:06:13;34.69;46.02
66119;DHT22;52912;48.564;9.302;2023-06-26T14:08:38;35.18;45.13
66119;DHT22;52912;48.564;9.302;2023-06-26T14:11:04;35.03;45.65
66119;DHT22;52912;48.564;9.302;2023-06-26T14:13:29;34.79;46.52
66119;DHT22;52912;48.564;9.302;2023-06-26T14:15:55;35.07;46.22
66119;DHT22;52912;48.564;9.302;2023-06-26T14:18:22;35.17;46.19
66119;DHT22;52912;48.564;9.302;2023-06-26T14:20:47;34.74;46.47
66119;DHT22;52912;48.564;9.302;2023-06-26T14:23:13;34.76;46.25
66119;DHT22;52912;48.564;9.302;2023-06-26T14:25:38;34.93;46.13
66119;DHT22;52912;48.564;9.302;2023-06-26T14:28:04;34.80;46.37
66119;DHT22;52912;48.564;9.302;2023-06-26T14:30:29;34.79;44.47
66119;DHT22;52912;48.564;9.302;2023-06-26T14:32:55;34.35;45.86
66119;DHT22;52912;48.564;9.302;2023-06-26T14:35:21;34.63;44.12
66119;DHT22;52912;48.564;9.302;2023-06-26T14:37:47;34.82;43.71
66119;DHT22;52912;48.564;9.302;2023-06-26T14:40:13;34.35;45.61
66119;DHT22;52912;48.564;9.302;2023-06-26T14:42:39;34.21;44.75
66119;DHT22;52912;48.564;9.302;2023-06-26T14:45:05;34.44;44.49
66119;DHT22;52912;48.564;9.302;2023-06-26T14:47:31;33.84;44.98
66119;DHT22;52912;48.564;9.302;2023-06-26T14:49:56;34.39;44.20
66119;DHT22;52912;48.564;9.302;2023-06-26T14:52:23;34.59;43.80
66119;DHT22;52912;48.564;9.302;2023-06-26T14:54:49;34.80;43.99
66119;DHT22;52912;48.564;9.302;2023-06-26T14:57:14;33.80;44.27
66119;DHT22;52912;48.564;9.302;2023-06-26T14:59:40;34.56;43.88
66119;DHT22;52912;48.564;9.302;2023-06-26T15:02:05;34.70;43.81
66119;DHT22;52912;48.564;9.302;2023-06-26T15:04:31;34.63;44.15
66119;DHT22;52912;48.564;9.302;2023-06-26T15:06:57;34.62;43.23
66119;DHT22;52912;48.564;9.302;2023-06-26T15:09:24;33.80;44.07
66119;DHT22;52912;48.564;9.302;2023-06-26T15:11:49;34.18;42.89
66119;DHT22;52912;48.564;9.302;2023-06-26T15:14:15;34.60;42.98
66119;DHT22;52912;48.564;9.302;2023-06-26T15:16:40;34.44;43.52
66119;DHT22;52912;48.564;9.302;2023-06-26T15:19:06;34.56;43.76
66119;DHT22;52912;48.564;9.302;2023-06-26T15:21:31;34.24;43.03
66119;DHT22;52912;48.564;9.302;2023-06-26T15:23:56;33.72;43.75
66119;DHT22;52912;48.564;9.302;2023-06-26T15:26:23;33.93;43.98
66119;DHT22;52912;48.564;9.302;2023-06-26T15:28:49;33.35;44.60
66119;DHT22;52912;48.564;9.302;2023-06-26T15:31:14;33.77;43.82
66119;DHT22;52912;48.564;9.302;2023-06-26T15:33:40;33.97;43.81
66119;DHT22;52912;48.564;9.302;2023-06-26T15:36:05;34.41;43.82
66119;DHT22;52912;48.564;9.302;2023-06-26T15:38:31;33.73;44.82
66119;DHT22;52912;48.564;9.302;2023-06-26T15:40:56;33.05;45.11
66119;DHT22;52912;48.564;9.302;2023-06-26T15:43:23;33.69;45.01
66119;DHT22;52912;48.564;9.302;2023-06-26T15:45:49;33.24;45.36
66119;DHT22;52912;48.564;9.302;2023-06-26T15:48:14;32.97;45.65
66119;DHT22;52912;48.564;9.302;2023-06-26T15:50:39;33.10;45.52
66119;DHT22;52912;48.564;9.302;2023-06-26T15:53:05;33.08;45.95
66119;DHT22;52912;48.564;9.302;2023-06-26T15:55:31;33.11;46.14
66119;DHT22;52912;48.564;9.302;2023-06-26T15:57:57;33.39;45.81
66119;DHT22;52912;48.564;9.302;2023-06-26T16:00:25;32.32;46.50
66119;DHT22;52912;48.564;9.302;2023-06-26T16:02:50;32.51;47.15
66119;DHT22;52912;48.564;9.302;2023-06-26T16:05:16;32.18;46.93
66119;DHT22;52912;48.564;9.302;2023-06-26T16:07:41;32.80;46.26
66119;DHT22;52912;48.564;9.302;2023-06-26T16:10:07;32.56;46.78
66119;DHT22;52912;48.564;9.302;2023-06-26T16:12:33;31.42;48.41
66119;DHT22;52912;48.564;9.302;2023-06-26T16:14:59;31.60;47.70
66119;DHT22;52912;48.564;9.302;2023-06-26T16:17:25;31.69;47.82
66119;DHT22;52912;48.564;9.302;2023-06-26T16:19:51;32.02;47.94
66119;DHT22;52912;48.564;9.302;2023-06-26T16:22:16;31.95;47.72
66119;DHT22;52912;48.564;9.302;2023-06-26T16:24:42;31.81;47.82